sensor_id;sensor_type;location;lat;lon;timestamp;P1;durP1;ratioP1;P2;durP2;ratioP2
51304;SDS011;37392;50.964;6.952;2022-12-29T00:02:14;4.25;;;1.30;;
51304;SDS011;37392;50.964;6.952;2022-12-29T00:04:40;2.35;;;1.35;;
51304;SDS011;37392;50.964;6.952;2022-12-29T00:07:06;3.70;;;1.15;;
51304;SDS011;37392;50.964;6.952;2022-12-29T00:09:32;1.80;;;1.42;;
51304;SDS011;37392;50.964;6.952;2022-12-29T00:11:59;3.08;;;1.80;;
51304;SDS011;37392;50.964;6.952;2022-12-29T00:14:26;2.78;;;1.42;;
51304;SDS011;37392;50.964;6.952;2022-12-29T00:17:11;1.73;;;1.10;;
51304;SDS011;37392;50.964;6.952;2022-12-29T00:19:37;2.05;;;1.40;;
51304;SDS011;37392;50.964;6.952;2022-12-29T00:22:21;2.42;;;1.20;;
51304;SDS011;37392;50.964;6.952;2022-12-29T00:25:07;1.98;;;1.35;;
51304;SDS011;37392;50.964;6.952;2022-12-29T00:27:53;3.67;;;1.20;;
51304;SDS011;37392;50.964;6.952;2022-12-29T00:30:37;1.65;;;1.10;;
51304;SDS011;37392;50.964;6.952;2022-12-29T00:33:22;2.75;;;1.10;;
51304;SDS011;37392;50.964;6.952;2022-12-29T00:39:08;15.45;;;4.00;;
51304;SDS011;37392;50.964;6.952;2022-12-29T00:42:05;2.58;;;1.30;;
51304;SDS011;37392;50.964;6.952;2022-12-29T00:44:50;2.88;;;0.95;;
51304;SDS011;37392;50.964;6.952;2022-12-29T00:47:16;2.45;;;0.80;;
51304;SDS011;37392;50.964;6.952;2022-12-29T00:49:42;3.00;;;0.73;;
51304;SDS011;37392;50.964;6.952;2022-12-29T00:52:08;1.23;;;0.63;;
51304;SDS011;37392;50.964;6.952;2022-12-29T00:54:38;1.02;;;0.70;;
51304;SDS011;37392;50.964;6.952;2022-12-29T00:57:06;5.43;;;2.60;;
51304;SDS011;37392;50.964;6.952;2022-12-29T00:59:37;1.33;;;0.60;;
51304;SDS011;37392;50.964;6.952;2022-12-29T01:04:30;0.98;;;0.70;;
51304;SDS011;37392;50.964;6.952;2022-12-29T01:06:56;2.22;;;0.80;;
51304;SDS011;37392;50.964;6.952;2022-12-29T01:09:22;0.77;;;0.70;;
51304;SDS011;37392;50.964;6.952;2022-12-29T01:12:07;0.55;;;0.43;;
51304;SDS011;37392;50.964;6.952;2022-12-29T01:14:33;0.65;;;0.55;;
51304;SDS011;37392;50.964;6.952;2022-12-29T01:16:59;1.55;;;1.08;;
51304;SDS011;37392;50.964;6.952;2022-12-29T01:19:25;3.85;;;1.38;;
51304;SDS011;37392;50.964;6.952;2022-12-29T01:21:51;4.43;;;2.22;;
51304;SDS011;37392;50.964;6.952;2022-12-29T01:24:18;0.75;;;0.50;;
51304;SDS011;37392;50.964;6.952;2022-12-29T01:26:45;0.73;;;0.60;;
51304;SDS011;37392;50.964;6.952;2022-12-29T01:29:11;1.63;;;0.85;;
51304;SDS011;37392;50.964;6.952;2022-12-29T01:31:37;0.70;;;0.60;;
51304;SDS011;37392;50.964;6.952;2022-12-29T01:34:03;0.70;;;0.50;;
51304;SDS011;37392;50.964;6.952;2022-12-29T01:36:29;0.38;;;0.32;;
51304;SDS011;37392;50.964;6.952;2022-12-29T01:38:55;0.68;;;0.50;;
51304;SDS011;37392;50.964;6.952;2022-12-29T01:41:21;1.10;;;0.88;;
51304;SDS011;37392;50.964;6.952;2022-12-29T01:43:53;4.07;;;1.58;;
51304;SDS011;37392;50.964;6.952;2022-12-29T01:49:12;0.95;;;0.60;;
51304;SDS011;37392;50.964;6.952;2022-12-29T01:51:50;0.65;;;0.40;;
51304;SDS011;37392;50.964;6.952;2022-12-29T01:56:59;0.95;;;0.60;;
51304;SDS011;37392;50.964;6.952;2022-12-29T01:59:30;1.35;;;0.45;;
51304;SDS011;37392;50.964;6.952;2022-12-29T02:02:01;0.93;;;0.77;;
51304;SDS011;37392;50.964;6.952;2022-12-29T02:04:27;4.78;;;2.92;;
51304;SDS011;37392;50.964;6.952;2022-12-29T02:07:04;1.40;;;0.60;;
51304;SDS011;37392;50.964;6.952;2022-12-29T02:09:35;2.22;;;0.98;;
51304;SDS011;37392;50.964;6.952;2022-12-29T02:12:01;2.60;;;0.93;;
51304;SDS011;37392;50.964;6.952;2022-12-29T02:14:27;3.20;;;0.80;;
51304;SDS011;37392;50.964;6.952;2022-12-29T02:23:07;3.70;;;2.33;;
51304;SDS011;37392;50.964;6.952;2022-12-29T02:26:04;1.45;;;0.77;;
51304;SDS011;37392;50.964;6.952;2022-12-29T02:31:41;4.88;;;0.82;;
51304;SDS011;37392;50.964;6.952;2022-12-29T02:37:49;4.63;;;1.00;;
51304;SDS011;37392;50.964;6.952;2022-12-29T02:46:04;3.95;;;1.10;;
51304;SDS011;37392;50.964;6.952;2022-12-29T02:48:49;5.57;;;1.08;;
51304;SDS011;37392;50.964;6.952;2022-12-29T02:51:26;5.93;;;1.42;;
51304;SDS011;37392;50.964;6.952;2022-12-29T02:54:18;3.17;;;1.15;;
51304;SDS011;37392;50.964;6.952;2022-12-29T02:57:03;2.75;;;0.93;;
51304;SDS011;37392;50.964;6.952;2022-12-29T02:59:46;1.13;;;0.60;;
51304;SDS011;37392;50.964;6.952;2022-12-29T03:11:04;3.50;;;0.77;;
51304;SDS011;37392;50.964;6.952;2022-12-29T03:14:18;1.92;;;0.70;;
51304;SDS011;37392;50.964;6.952;2022-12-29T03:17:16;1.92;;;0.60;;
51304;SDS011;37392;50.964;6.952;2022-12-29T03:19:52;0.73;;;0.70;;
51304;SDS011;37392;50.964;6.952;2022-12-29T03:22:30;0.45;;;0.45;;
51304;SDS011;37392;50.964;6.952;2022-12-29T03:28:07;1.02;;;0.82;;
51304;SDS011;37392;50.964;6.952;2022-12-29T03:30:41;1.00;;;0.45;;
51304;SDS011;37392;50.964;6.952;2022-12-29T03:33:09;0.95;;;0.70;;
51304;SDS011;37392;50.964;6.952;2022-12-29T03:35:40;0.55;;;0.50;;
51304;SDS011;37392;50.964;6.952;2022-12-29T03:38:09;2.50;;;0.57;;
51304;SDS011;37392;50.964;6.952;2022-12-29T03:40:42;0.93;;;0.70;;
51304;SDS011;37392;50.964;6.952;2022-12-29T03:43:11;2.30;;;0.60;;
51304;SDS011;37392;50.964;6.952;2022-12-29T03:45:38;1.77;;;0.52;;
51304;SDS011;37392;50.964;6.952;2022-12-29T03:48:04;0.30;;;0.30;;
51304;SDS011;37392;50.964;6.952;2022-12-29T03:50:29;0.45;;;0.43;;
51304;SDS011;37392;50.964;6.952;2022-12-29T03:52:55;1.42;;;0.90;;
51304;SDS011;37392;50.964;6.952;2022-12-29T03:55:21;0.65;;;0.50;;
51304;SDS011;37392;50.964;6.952;2022-12-29T03:57:46;1.75;;;0.60;;
51304;SDS011;37392;50.964;6.952;2022-12-29T04:00:12;1.10;;;0.70;;
51304;SDS011;37392;50.964;6.952;2022-12-29T04:02:38;3.50;;;1.02;;
51304;SDS011;37392;50.964;6.952;2022-12-29T04:05:04;2.20;;;0.90;;
51304;SDS011;37392;50.964;6.952;2022-12-29T04:07:30;2.35;;;0.77;;
51304;SDS011;37392;50.964;6.952;2022-12-29T04:09:56;0.98;;;0.60;;
51304;SDS011;37392;50.964;6.952;2022-12-29T04:12:21;5.00;;;0.93;;
51304;SDS011;37392;50.964;6.952;2022-12-29T04:14:47;1.42;;;0.50;;
51304;SDS011;37392;50.964;6.952;2022-12-29T04:17:13;1.98;;;0.88;;
51304;SDS011;37392;50.964;6.952;2022-12-29T04:19:38;0.80;;;0.63;;
51304;SDS011;37392;50.964;6.952;2022-12-29T04:22:04;1.85;;;1.00;;
51304;SDS011;37392;50.964;6.952;2022-12-29T04:24:29;4.80;;;1.15;;
51304;SDS011;37392;50.964;6.952;2022-12-29T04:26:55;1.55;;;0.52;;
51304;SDS011;37392;50.964;6.952;2022-12-29T04:29:20;1.85;;;0.70;;
51304;SDS011;37392;50.964;6.952;2022-12-29T04:31:46;0.60;;;0.57;;
51304;SDS011;37392;50.964;6.952;2022-12-29T04:34:12;2.17;;;0.57;;
51304;SDS011;37392;50.964;6.952;2022-12-29T04:36:38;2.90;;;0.77;;
51304;SDS011;37392;50.964;6.952;2022-12-29T04:39:05;9.07;;;0.80;;
51304;SDS011;37392;50.964;6.952;2022-12-29T04:41:31;1.42;;;0.65;;
51304;SDS011;37392;50.964;6.952;2022-12-29T04:43:57;1.52;;;0.98;;
51304;SDS011;37392;50.964;6.952;2022-12-29T04:46:23;2.45;;;1.52;;
51304;SDS011;37392;50.964;6.952;2022-12-29T04:48:48;1.58;;;0.85;;
51304;SDS011;37392;50.964;6.952;2022-12-29T04:51:14;4.28;;;1.60;;
51304;SDS011;37392;50.964;6.952;2022-12-29T04:53:40;4.40;;;0.98;;
51304;SDS011;37392;50.964;6.952;2022-12-29T04:56:06;2.55;;;0.82;;
51304;SDS011;37392;50.964;6.952;2022-12-29T04:58:31;2.97;;;1.13;;
51304;SDS011;37392;50.964;6.952;2022-12-29T05:00:57;2.03;;;0.60;;
51304;SDS011;37392;50.964;6.952;2022-12-29T05:03:22;3.60;;;0.75;;
51304;SDS011;37392;50.964;6.952;2022-12-29T05:05:48;2.90;;;1.00;;
51304;SDS011;37392;50.964;6.952;2022-12-29T05:08:13;2.88;;;0.90;;
51304;SDS011;37392;50.964;6.952;2022-12-29T05:10:39;2.40;;;0.88;;
51304;SDS011;37392;50.964;6.952;2022-12-29T05:13:05;2.17;;;0.90;;
51304;SDS011;37392;50.964;6.952;2022-12-29T05:15:30;5.65;;;0.85;;
51304;SDS011;37392;50.964;6.952;2022-12-29T05:17:56;1.30;;;0.50;;
51304;SDS011;37392;50.964;6.952;2022-12-29T05:20:22;2.03;;;0.75;;
51304;SDS011;37392;50.964;6.952;2022-12-29T05:22:47;3.72;;;1.05;;
51304;SDS011;37392;50.964;6.952;2022-12-29T05:25:13;1.48;;;1.10;;
51304;SDS011;37392;50.964;6.952;2022-12-29T05:27:39;5.18;;;0.57;;
51304;SDS011;37392;50.964;6.952;2022-12-29T05:30:04;5.93;;;0.77;;
51304;SDS011;37392;50.964;6.952;2022-12-29T05:32:30;0.52;;;0.52;;
51304;SDS011;37392;50.964;6.952;2022-12-29T05:34:56;4.88;;;0.85;;
51304;SDS011;37392;50.964;6.952;2022-12-29T05:37:22;0.90;;;0.70;;
51304;SDS011;37392;50.964;6.952;2022-12-29T05:39:47;4.25;;;0.70;;
51304;SDS011;37392;50.964;6.952;2022-12-29T05:42:13;1.90;;;0.75;;
51304;SDS011;37392;50.964;6.952;2022-12-29T05:44:38;0.75;;;0.55;;
51304;SDS011;37392;50.964;6.952;2022-12-29T05:47:04;1.38;;;0.70;;
51304;SDS011;37392;50.964;6.952;2022-12-29T05:49:30;2.83;;;0.63;;
51304;SDS011;37392;50.964;6.952;2022-12-29T05:51:55;3.65;;;1.00;;
51304;SDS011;37392;50.964;6.952;2022-12-29T05:54:21;1.10;;;0.90;;
51304;SDS011;37392;50.964;6.952;2022-12-29T05:56:47;2.95;;;0.55;;
51304;SDS011;37392;50.964;6.952;2022-12-29T05:59:12;1.65;;;0.85;;
51304;SDS011;37392;50.964;6.952;2022-12-29T06:01:38;6.82;;;2.42;;
51304;SDS011;37392;50.964;6.952;2022-12-29T06:04:04;1.00;;;0.75;;
51304;SDS011;37392;50.964;6.952;2022-12-29T06:06:29;1.20;;;0.60;;
51304;SDS011;37392;50.964;6.952;2022-12-29T06:08:55;3.50;;;0.70;;
51304;SDS011;37392;50.964;6.952;2022-12-29T06:11:20;3.95;;;0.70;;
51304;SDS011;37392;50.964;6.952;2022-12-29T06:13:46;3.65;;;0.60;;
51304;SDS011;37392;50.964;6.952;2022-12-29T06:16:12;2.85;;;0.77;;
51304;SDS011;37392;50.964;6.952;2022-12-29T06:18:37;1.38;;;0.65;;
51304;SDS011;37392;50.964;6.952;2022-12-29T06:21:03;3.45;;;0.88;;
51304;SDS011;37392;50.964;6.952;2022-12-29T06:23:30;1.23;;;0.50;;
51304;SDS011;37392;50.964;6.952;2022-12-29T06:25:56;1.70;;;0.82;;
51304;SDS011;37392;50.964;6.952;2022-12-29T06:28:22;2.63;;;1.20;;
51304;SDS011;37392;50.964;6.952;2022-12-29T06:30:48;9.00;;;1.55;;
51304;SDS011;37392;50.964;6.952;2022-12-29T06:33:14;4.32;;;0.80;;
51304;SDS011;37392;50.964;6.952;2022-12-29T06:35:44;1.38;;;0.52;;
51304;SDS011;37392;50.964;6.952;2022-12-29T06:38:10;1.63;;;0.80;;
51304;SDS011;37392;50.964;6.952;2022-12-29T06:40:36;2.10;;;0.70;;
51304;SDS011;37392;50.964;6.952;2022-12-29T06:43:02;4.18;;;0.85;;
51304;SDS011;37392;50.964;6.952;2022-12-29T06:45:27;2.72;;;0.82;;
51304;SDS011;37392;50.964;6.952;2022-12-29T06:47:53;8.35;;;1.08;;
51304;SDS011;37392;50.964;6.952;2022-12-29T06:50:18;5.05;;;0.70;;
51304;SDS011;37392;50.964;6.952;2022-12-29T06:52:44;1.98;;;0.68;;
51304;SDS011;37392;50.964;6.952;2022-12-29T06:55:10;2.25;;;0.85;;
51304;SDS011;37392;50.964;6.952;2022-12-29T06:57:35;1.45;;;0.77;;
51304;SDS011;37392;50.964;6.952;2022-12-29T07:00:02;2.88;;;1.02;;
51304;SDS011;37392;50.964;6.952;2022-12-29T07:02:29;1.05;;;0.65;;
51304;SDS011;37392;50.964;6.952;2022-12-29T07:04:55;1.50;;;0.68;;
51304;SDS011;37392;50.964;6.952;2022-12-29T07:07:21;3.22;;;0.65;;
51304;SDS011;37392;50.964;6.952;2022-12-29T07:09:46;3.15;;;0.55;;
51304;SDS011;37392;50.964;6.952;2022-12-29T07:12:12;3.88;;;0.90;;
51304;SDS011;37392;50.964;6.952;2022-12-29T07:14:38;2.85;;;1.17;;
51304;SDS011;37392;50.964;6.952;2022-12-29T07:17:04;2.38;;;0.75;;
51304;SDS011;37392;50.964;6.952;2022-12-29T07:19:31;0.60;;;0.30;;
51304;SDS011;37392;50.964;6.952;2022-12-29T07:21:58;4.97;;;1.02;;
51304;SDS011;37392;50.964;6.952;2022-12-29T07:24:24;2.08;;;0.70;;
51304;SDS011;37392;50.964;6.952;2022-12-29T07:26:50;3.88;;;0.70;;
51304;SDS011;37392;50.964;6.952;2022-12-29T07:29:17;1.20;;;0.68;;
51304;SDS011;37392;50.964;6.952;2022-12-29T07:31:43;4.85;;;2.13;;
51304;SDS011;37392;50.964;6.952;2022-12-29T07:34:08;0.77;;;0.70;;
51304;SDS011;37392;50.964;6.952;2022-12-29T07:36:34;2.97;;;0.80;;
51304;SDS011;37392;50.964;6.952;2022-12-29T07:39:00;6.13;;;0.70;;
51304;SDS011;37392;50.964;6.952;2022-12-29T07:41:26;4.65;;;0.95;;
51304;SDS011;37392;50.964;6.952;2022-12-29T07:43:52;3.95;;;1.85;;
51304;SDS011;37392;50.964;6.952;2022-12-29T07:46:18;3.45;;;1.00;;
51304;SDS011;37392;50.964;6.952;2022-12-29T07:48:43;3.83;;;0.80;;
51304;SDS011;37392;50.964;6.952;2022-12-29T07:51:09;5.22;;;0.80;;
51304;SDS011;37392;50.964;6.952;2022-12-29T07:53:34;2.83;;;0.98;;
51304;SDS011;37392;50.964;6.952;2022-12-29T07:56:00;3.97;;;1.30;;
51304;SDS011;37392;50.964;6.952;2022-12-29T07:58:26;5.45;;;0.68;;
51304;SDS011;37392;50.964;6.952;2022-12-29T08:00:55;1.73;;;0.60;;
51304;SDS011;37392;50.964;6.952;2022-12-29T08:03:21;2.95;;;1.20;;
51304;SDS011;37392;50.964;6.952;2022-12-29T08:05:47;2.65;;;1.23;;
51304;SDS011;37392;50.964;6.952;2022-12-29T08:08:14;5.10;;;1.00;;
51304;SDS011;37392;50.964;6.952;2022-12-29T08:10:39;7.35;;;1.88;;
51304;SDS011;37392;50.964;6.952;2022-12-29T08:13:05;4.75;;;0.90;;
51304;SDS011;37392;50.964;6.952;2022-12-29T08:15:31;6.93;;;1.48;;
51304;SDS011;37392;50.964;6.952;2022-12-29T08:21:03;5.07;;;1.00;;
51304;SDS011;37392;50.964;6.952;2022-12-29T08:23:29;10.13;;;1.70;;
51304;SDS011;37392;50.964;6.952;2022-12-29T08:25:59;3.35;;;1.10;;
51304;SDS011;37392;50.964;6.952;2022-12-29T08:28:27;9.00;;;2.08;;
51304;SDS011;37392;50.964;6.952;2022-12-29T08:30:53;4.28;;;1.27;;
51304;SDS011;37392;50.964;6.952;2022-12-29T08:33:23;8.38;;;1.30;;
51304;SDS011;37392;50.964;6.952;2022-12-29T08:35:48;7.03;;;1.10;;
51304;SDS011;37392;50.964;6.952;2022-12-29T08:38:14;10.63;;;1.60;;
51304;SDS011;37392;50.964;6.952;2022-12-29T08:40:40;9.63;;;1.45;;
51304;SDS011;37392;50.964;6.952;2022-12-29T08:43:05;9.48;;;1.70;;
51304;SDS011;37392;50.964;6.952;2022-12-29T08:45:31;5.82;;;1.17;;
51304;SDS011;37392;50.964;6.952;2022-12-29T08:47:57;6.50;;;0.80;;
51304;SDS011;37392;50.964;6.952;2022-12-29T08:50:22;6.22;;;1.45;;
51304;SDS011;37392;50.964;6.952;2022-12-29T08:52:48;9.23;;;1.40;;
51304;SDS011;37392;50.964;6.952;2022-12-29T08:55:14;5.00;;;1.50;;
51304;SDS011;37392;50.964;6.952;2022-12-29T08:57:39;11.57;;;2.33;;
51304;SDS011;37392;50.964;6.952;2022-12-29T09:00:05;8.05;;;1.48;;
51304;SDS011;37392;50.964;6.952;2022-12-29T09:02:32;6.78;;;1.83;;
51304;SDS011;37392;50.964;6.952;2022-12-29T09:04:57;4.72;;;1.08;;
51304;SDS011;37392;50.964;6.952;2022-12-29T09:07:24;13.40;;;1.98;;
51304;SDS011;37392;50.964;6.952;2022-12-29T09:09:49;10.30;;;1.83;;
51304;SDS011;37392;50.964;6.952;2022-12-29T09:12:18;9.15;;;1.58;;
51304;SDS011;37392;50.964;6.952;2022-12-29T09:14:45;5.07;;;1.35;;
51304;SDS011;37392;50.964;6.952;2022-12-29T09:17:11;6.07;;;1.73;;
51304;SDS011;37392;50.964;6.952;2022-12-29T09:19:56;9.45;;;1.50;;
51304;SDS011;37392;50.964;6.952;2022-12-29T09:22:22;6.18;;;1.92;;
51304;SDS011;37392;50.964;6.952;2022-12-29T09:24:47;9.40;;;1.73;;
51304;SDS011;37392;50.964;6.952;2022-12-29T09:27:13;9.82;;;2.88;;
51304;SDS011;37392;50.964;6.952;2022-12-29T09:29:38;11.82;;;1.90;;
51304;SDS011;37392;50.964;6.952;2022-12-29T09:32:04;12.43;;;1.42;;
51304;SDS011;37392;50.964;6.952;2022-12-29T09:34:30;6.72;;;1.90;;
51304;SDS011;37392;50.964;6.952;2022-12-29T09:36:55;9.30;;;1.48;;
51304;SDS011;37392;50.964;6.952;2022-12-29T09:39:21;9.32;;;1.70;;
51304;SDS011;37392;50.964;6.952;2022-12-29T09:47:18;13.05;;;1.67;;
51304;SDS011;37392;50.964;6.952;2022-12-29T09:49:47;5.65;;;1.55;;
51304;SDS011;37392;50.964;6.952;2022-12-29T09:52:21;6.22;;;1.42;;
51304;SDS011;37392;50.964;6.952;2022-12-29T09:55:13;7.22;;;1.58;;
51304;SDS011;37392;50.964;6.952;2022-12-29T09:57:45;9.85;;;1.60;;
51304;SDS011;37392;50.964;6.952;2022-12-29T10:00:16;10.93;;;1.88;;
51304;SDS011;37392;50.964;6.952;2022-12-29T10:02:49;7.95;;;1.40;;
51304;SDS011;37392;50.964;6.952;2022-12-29T10:11:31;5.65;;;1.50;;
51304;SDS011;37392;50.964;6.952;2022-12-29T10:23:14;9.23;;;1.73;;
51304;SDS011;37392;50.964;6.952;2022-12-29T10:26:04;5.75;;;2.45;;
51304;SDS011;37392;50.964;6.952;2022-12-29T10:28:40;4.75;;;1.90;;
51304;SDS011;37392;50.964;6.952;2022-12-29T10:31:23;10.40;;;2.97;;
51304;SDS011;37392;50.964;6.952;2022-12-29T10:36:51;9.25;;;2.08;;
51304;SDS011;37392;50.964;6.952;2022-12-29T10:39:48;5.45;;;1.95;;
51304;SDS011;37392;50.964;6.952;2022-12-29T10:44:54;6.35;;;1.48;;
51304;SDS011;37392;50.964;6.952;2022-12-29T10:47:23;10.48;;;3.58;;
51304;SDS011;37392;50.964;6.952;2022-12-29T10:49:53;8.63;;;1.83;;
51304;SDS011;37392;50.964;6.952;2022-12-29T10:52:20;6.43;;;1.95;;
51304;SDS011;37392;50.964;6.952;2022-12-29T10:54:50;11.88;;;2.65;;
51304;SDS011;37392;50.964;6.952;2022-12-29T10:58:07;7.55;;;2.08;;
51304;SDS011;37392;50.964;6.952;2022-12-29T11:00:37;7.97;;;1.77;;
51304;SDS011;37392;50.964;6.952;2022-12-29T11:06:02;4.63;;;1.85;;
51304;SDS011;37392;50.964;6.952;2022-12-29T11:08:39;14.23;;;3.47;;
51304;SDS011;37392;50.964;6.952;2022-12-29T11:11:27;10.07;;;2.15;;
51304;SDS011;37392;50.964;6.952;2022-12-29T11:14:07;5.57;;;1.58;;
51304;SDS011;37392;50.964;6.952;2022-12-29T11:16:43;4.95;;;2.03;;
51304;SDS011;37392;50.964;6.952;2022-12-29T11:19:23;6.15;;;1.83;;
51304;SDS011;37392;50.964;6.952;2022-12-29T11:21:52;16.95;;;2.15;;
51304;SDS011;37392;50.964;6.952;2022-12-29T11:24:29;11.93;;;2.20;;
51304;SDS011;37392;50.964;6.952;2022-12-29T11:29:57;6.68;;;1.88;;
51304;SDS011;37392;50.964;6.952;2022-12-29T11:32:27;15.82;;;2.00;;
51304;SDS011;37392;50.964;6.952;2022-12-29T11:34:57;9.05;;;1.83;;
51304;SDS011;37392;50.964;6.952;2022-12-29T11:37:28;8.13;;;1.98;;
51304;SDS011;37392;50.964;6.952;2022-12-29T11:40:05;10.63;;;2.25;;
51304;SDS011;37392;50.964;6.952;2022-12-29T11:42:36;8.27;;;1.95;;
51304;SDS011;37392;50.964;6.952;2022-12-29T11:45:28;11.73;;;1.88;;
51304;SDS011;37392;50.964;6.952;2022-12-29T11:48:20;7.30;;;1.40;;
51304;SDS011;37392;50.964;6.952;2022-12-29T11:50:50;15.88;;;2.67;;
51304;SDS011;37392;50.964;6.952;2022-12-29T11:53:20;8.27;;;1.85;;
51304;SDS011;37392;50.964;6.952;2022-12-29T11:55:54;13.52;;;1.73;;
51304;SDS011;37392;50.964;6.952;2022-12-29T11:58:30;13.57;;;4.43;;
51304;SDS011;37392;50.964;6.952;2022-12-29T12:01:23;14.32;;;3.60;;
51304;SDS011;37392;50.964;6.952;2022-12-29T12:06:43;8.52;;;1.65;;
51304;SDS011;37392;50.964;6.952;2022-12-29T12:09:19;8.40;;;1.88;;
51304;SDS011;37392;50.964;6.952;2022-12-29T12:11:54;8.45;;;1.88;;
51304;SDS011;37392;50.964;6.952;2022-12-29T12:14:21;11.45;;;1.70;;
51304;SDS011;37392;50.964;6.952;2022-12-29T12:16:59;5.63;;;2.03;;
51304;SDS011;37392;50.964;6.952;2022-12-29T12:19:50;8.52;;;1.40;;
51304;SDS011;37392;50.964;6.952;2022-12-29T12:27:48;9.38;;;2.08;;
51304;SDS011;37392;50.964;6.952;2022-12-29T12:30:27;12.45;;;1.90;;
51304;SDS011;37392;50.964;6.952;2022-12-29T12:33:05;7.10;;;1.73;;
51304;SDS011;37392;50.964;6.952;2022-12-29T12:42:01;21.50;;;5.30;;
51304;SDS011;37392;50.964;6.952;2022-12-29T12:50:55;12.90;;;2.40;;
51304;SDS011;37392;50.964;6.952;2022-12-29T12:53:42;10.85;;;2.10;;
51304;SDS011;37392;50.964;6.952;2022-12-29T13:17:02;7.97;;;1.95;;
51304;SDS011;37392;50.964;6.952;2022-12-29T13:19:43;8.60;;;2.25;;
51304;SDS011;37392;50.964;6.952;2022-12-29T13:28:18;12.07;;;2.05;;
51304;SDS011;37392;50.964;6.952;2022-12-29T13:31:33;11.18;;;2.40;;
51304;SDS011;37392;50.964;6.952;2022-12-29T13:37:39;9.80;;;3.60;;
51304;SDS011;37392;50.964;6.952;2022-12-29T13:40:32;14.40;;;3.10;;
51304;SDS011;37392;50.964;6.952;2022-12-29T13:43:03;16.42;;;2.33;;
51304;SDS011;37392;50.964;6.952;2022-12-29T13:45:30;12.98;;;2.72;;
51304;SDS011;37392;50.964;6.952;2022-12-29T13:48:01;14.35;;;2.10;;
51304;SDS011;37392;50.964;6.952;2022-12-29T13:50:38;13.38;;;2.40;;
51304;SDS011;37392;50.964;6.952;2022-12-29T13:56:21;16.00;;;2.25;;
51304;SDS011;37392;50.964;6.952;2022-12-29T14:04:56;9.65;;;1.80;;
51304;SDS011;37392;50.964;6.952;2022-12-29T14:07:25;9.52;;;1.25;;
51304;SDS011;37392;50.964;6.952;2022-12-29T14:09:51;10.52;;;1.92;;
51304;SDS011;37392;50.964;6.952;2022-12-29T14:12:20;10.13;;;2.10;;
51304;SDS011;37392;50.964;6.952;2022-12-29T14:17:35;11.18;;;2.88;;
51304;SDS011;37392;50.964;6.952;2022-12-29T14:20:03;20.38;;;3.75;;
51304;SDS011;37392;50.964;6.952;2022-12-29T14:22:32;13.18;;;2.13;;
51304;SDS011;37392;50.964;6.952;2022-12-29T14:24:58;10.48;;;2.55;;
51304;SDS011;37392;50.964;6.952;2022-12-29T14:29:53;14.80;;;2.28;;
51304;SDS011;37392;50.964;6.952;2022-12-29T14:34:59;16.10;;;2.75;;
51304;SDS011;37392;50.964;6.952;2022-12-29T14:40:51;11.77;;;2.38;;
51304;SDS011;37392;50.964;6.952;2022-12-29T14:43:24;7.72;;;1.63;;
51304;SDS011;37392;50.964;6.952;2022-12-29T14:45:53;14.80;;;3.83;;
51304;SDS011;37392;50.964;6.952;2022-12-29T14:48:28;14.52;;;2.63;;
51304;SDS011;37392;50.964;6.952;2022-12-29T14:51:01;7.05;;;2.03;;
51304;SDS011;37392;50.964;6.952;2022-12-29T14:56:16;15.13;;;2.92;;
51304;SDS011;37392;50.964;6.952;2022-12-29T15:01:36;8.27;;;1.63;;
51304;SDS011;37392;50.964;6.952;2022-12-29T15:04:21;4.25;;;1.17;;
51304;SDS011;37392;50.964;6.952;2022-12-29T15:06:50;14.32;;;3.92;;
51304;SDS011;37392;50.964;6.952;2022-12-29T15:09:22;13.23;;;2.15;;
51304;SDS011;37392;50.964;6.952;2022-12-29T15:12:12;16.10;;;3.15;;
51304;SDS011;37392;50.964;6.952;2022-12-29T15:14:55;13.68;;;1.80;;
51304;SDS011;37392;50.964;6.952;2022-12-29T15:17:26;12.65;;;2.08;;
51304;SDS011;37392;50.964;6.952;2022-12-29T15:19:53;17.38;;;2.25;;
51304;SDS011;37392;50.964;6.952;2022-12-29T15:22:20;10.80;;;2.33;;
51304;SDS011;37392;50.964;6.952;2022-12-29T15:24:46;12.18;;;1.58;;
51304;SDS011;37392;50.964;6.952;2022-12-29T15:27:16;8.90;;;2.75;;
51304;SDS011;37392;50.964;6.952;2022-12-29T15:29:46;9.40;;;2.40;;
51304;SDS011;37392;50.964;6.952;2022-12-29T15:34:45;10.20;;;2.60;;
51304;SDS011;37392;50.964;6.952;2022-12-29T15:37:17;14.52;;;2.67;;
51304;SDS011;37392;50.964;6.952;2022-12-29T15:40:19;11.02;;;2.42;;
51304;SDS011;37392;50.964;6.952;2022-12-29T15:45:29;12.80;;;2.63;;
51304;SDS011;37392;50.964;6.952;2022-12-29T15:47:58;9.32;;;1.77;;
51304;SDS011;37392;50.964;6.952;2022-12-29T15:50:34;9.23;;;2.22;;
51304;SDS011;37392;50.964;6.952;2022-12-29T15:53:02;15.40;;;2.20;;
51304;SDS011;37392;50.964;6.952;2022-12-29T15:55:36;21.20;;;3.05;;
51304;SDS011;37392;50.964;6.952;2022-12-29T15:58:04;15.02;;;2.45;;
51304;SDS011;37392;50.964;6.952;2022-12-29T16:00:47;12.35;;;1.98;;
51304;SDS011;37392;50.964;6.952;2022-12-29T16:03:15;15.68;;;2.88;;
51304;SDS011;37392;50.964;6.952;2022-12-29T16:05:42;7.53;;;2.88;;
51304;SDS011;37392;50.964;6.952;2022-12-29T16:11:04;8.65;;;2.13;;
51304;SDS011;37392;50.964;6.952;2022-12-29T16:13:47;21.65;;;2.33;;
51304;SDS011;37392;50.964;6.952;2022-12-29T16:16:19;7.45;;;1.85;;
51304;SDS011;37392;50.964;6.952;2022-12-29T16:18:50;10.60;;;2.55;;
51304;SDS011;37392;50.964;6.952;2022-12-29T16:21:28;13.85;;;3.03;;
51304;SDS011;37392;50.964;6.952;2022-12-29T16:23:59;12.38;;;2.97;;
51304;SDS011;37392;50.964;6.952;2022-12-29T16:26:30;9.40;;;2.60;;
51304;SDS011;37392;50.964;6.952;2022-12-29T16:28:57;13.43;;;3.30;;
51304;SDS011;37392;50.964;6.952;2022-12-29T16:33:57;20.27;;;4.47;;
51304;SDS011;37392;50.964;6.952;2022-12-29T16:39:16;12.13;;;2.47;;
51304;SDS011;37392;50.964;6.952;2022-12-29T16:43:19;11.13;;;2.85;;
51304;SDS011;37392;50.964;6.952;2022-12-29T16:47:48;13.70;;;3.65;;
51304;SDS011;37392;50.964;6.952;2022-12-29T16:50:30;11.90;;;2.90;;
51304;SDS011;37392;50.964;6.952;2022-12-29T16:52:57;14.73;;;2.88;;
51304;SDS011;37392;50.964;6.952;2022-12-29T16:55:23;13.02;;;2.88;;
51304;SDS011;37392;50.964;6.952;2022-12-29T16:57:49;19.42;;;4.13;;
51304;SDS011;37392;50.964;6.952;2022-12-29T17:00:22;11.68;;;3.20;;
51304;SDS011;37392;50.964;6.952;2022-12-29T17:02:52;9.05;;;2.45;;
51304;SDS011;37392;50.964;6.952;2022-12-29T17:05:21;16.00;;;4.25;;
51304;SDS011;37392;50.964;6.952;2022-12-29T17:07:47;18.60;;;3.85;;
51304;SDS011;37392;50.964;6.952;2022-12-29T17:10:14;20.08;;;3.55;;
51304;SDS011;37392;50.964;6.952;2022-12-29T17:12:40;14.77;;;2.97;;
51304;SDS011;37392;50.964;6.952;2022-12-29T17:17:49;11.25;;;3.42;;
51304;SDS011;37392;50.964;6.952;2022-12-29T17:20:23;19.75;;;3.65;;
51304;SDS011;37392;50.964;6.952;2022-12-29T17:22:54;14.50;;;3.00;;
51304;SDS011;37392;50.964;6.952;2022-12-29T17:25:36;17.20;;;3.55;;
51304;SDS011;37392;50.964;6.952;2022-12-29T17:28:04;10.32;;;2.72;;
51304;SDS011;37392;50.964;6.952;2022-12-29T17:30:46;15.88;;;2.80;;
51304;SDS011;37392;50.964;6.952;2022-12-29T17:33:14;22.75;;;3.05;;
51304;SDS011;37392;50.964;6.952;2022-12-29T17:35:42;9.70;;;3.40;;
51304;SDS011;37392;50.964;6.952;2022-12-29T17:40:43;19.55;;;5.00;;
51304;SDS011;37392;50.964;6.952;2022-12-29T17:43:10;21.42;;;5.10;;
51304;SDS011;37392;50.964;6.952;2022-12-29T17:45:39;14.40;;;4.38;;
51304;SDS011;37392;50.964;6.952;2022-12-29T17:48:13;12.48;;;2.67;;
51304;SDS011;37392;50.964;6.952;2022-12-29T17:50:41;17.77;;;3.88;;
51304;SDS011;37392;50.964;6.952;2022-12-29T17:53:15;15.32;;;3.38;;
51304;SDS011;37392;50.964;6.952;2022-12-29T17:55:46;11.10;;;3.40;;
51304;SDS011;37392;50.964;6.952;2022-12-29T18:00:49;17.60;;;5.47;;
51304;SDS011;37392;50.964;6.952;2022-12-29T18:03:25;20.08;;;8.80;;